Time;durP1;ratioP1;P1;durP2;ratioP2;P2;SDS_P1;SDS_P2;PMS_P1;PMS_P2;Temp;Humidity;BMP_temperature;BMP_pressure;BME280_temperature;BME280_humidity;BME280_pressure;Samples;Min_cycle;Max_cycle;Signal;HPM_P1;HPM_P2
2023/06/14 00:00:48;;;;;;;3.37;2.40;;;21.80;46.20;;;24.47;36.09;101684.34;5038992;28;20558;-60
2023/06/14 00:03:17;;;;;;;2.80;2.03;;;21.80;46.40;;;24.42;35.90;101685.06;5052541;28;20273;-62
2023/06/14 00:05:46;;;;;;;4.73;2.23;;;21.70;46.50;;;24.41;36.12;101690.69;5053363;28;20687;-62
2023/06/14 00:08:14;;;;;;;3.57;1.80;;;21.70;46.70;;;24.38;36.11;101683.91;5056632;28;20708;-60
2023/06/14 00:10:43;;;;;;;3.47;2.10;;;21.70;46.80;;;24.38;36.56;101691.19;5055809;28;20263;-64
2023/06/14 00:13:10;;;;;;;3.97;2.20;;;21.70;47.00;;;24.36;36.43;101698.69;5056255;28;20200;-61
2023/06/14 00:15:38;;;;;;;4.23;2.27;;;21.70;47.20;;;24.34;36.36;101692.72;5055492;28;20718;-61
2023/06/14 00:18:05;;;;;;;6.63;3.60;;;21.60;47.20;;;24.33;36.66;101691.91;5056461;28;20288;-62
2023/06/14 00:20:33;;;;;;;2.30;2.20;;;21.60;47.40;;;24.31;36.36;101688.66;5052376;28;20191;-61
2023/06/14 00:23:01;;;;;;;3.97;2.17;;;21.60;47.40;;;24.31;36.53;101687.81;5035992;28;20209;-62
2023/06/14 00:25:28;;;;;;;5.30;1.93;;;21.60;47.50;;;24.31;36.77;101693.19;5035810;28;20219;-63
2023/06/14 00:27:57;;;;;;;3.30;1.77;;;21.60;47.70;;;24.30;36.88;101691.56;5036509;28;20186;-61
2023/06/14 00:30:30;;;;;;;2.83;2.07;;;21.60;47.60;;;24.28;36.84;101696.38;5038399;28;20194;-64
2023/06/14 00:32:57;;;;;;;3.27;2.00;;;21.60;47.80;;;24.22;37.05;101698.16;5056278;28;20220;-62
2023/06/14 00:35:25;;;;;;;2.60;2.40;;;21.60;47.90;;;24.18;37.10;101699.69;5055871;28;20237;-61
2023/06/14 00:37:54;;;;;;;3.27;2.40;;;21.50;48.30;;;24.13;36.96;101695.03;5056009;28;20301;-62
2023/06/14 00:40:21;;;;;;;2.80;2.30;;;21.50;48.30;;;24.08;37.29;101700.31;5055254;28;20515;-60
2023/06/14 00:42:49;;;;;;;2.93;2.10;;;21.40;48.60;;;24.04;37.34;101699.13;5054999;28;20216;-64
2023/06/14 00:45:17;;;;;;;2.20;2.00;;;21.30;48.60;;;23.99;37.49;101700.91;5055803;28;20673;-62
2023/06/14 00:47:47;;;;;;;4.53;2.30;;;21.30;48.90;;;23.96;37.50;101704.88;5055778;28;20190;-62
2023/06/14 00:50:14;;;;;;;3.20;2.17;;;21.30;49.20;;;23.92;37.61;101705.59;5054024;28;20190;-62
2023/06/14 00:52:41;;;;;;;3.10;1.90;;;21.20;49.20;;;23.87;37.55;101706.31;5054771;28;20305;-62
2023/06/14 00:55:09;;;;;;;3.63;2.33;;;21.20;49.20;;;23.85;37.71;101703.06;5055497;28;20585;-62
2023/06/14 00:57:37;;;;;;;2.50;2.30;;;21.20;49.50;;;23.81;37.94;101704.59;5055726;28;20245;-60
2023/06/14 01:00:09;;;;;;;5.57;2.47;;;21.10;49.80;;;23.79;37.82;101708.56;5055401;28;20193;-61
2023/06/14 01:02:56;;;;;;;2.23;2.00;;;21.10;49.80;;;23.75;37.86;101718.19;5047259;28;20193;-62
2023/06/14 01:05:44;;;;;;;4.03;2.20;;;21.00;50.00;;;23.68;38.22;101715.59;5055570;28;20267;-62
2023/06/14 01:08:24;;;;;;;2.83;2.27;;;21.00;50.30;;;23.62;38.38;101719.25;5055470;28;20217;-60
2023/06/14 01:11:02;;;;;;;3.80;2.50;;;21.00;50.40;;;23.63;38.46;101723.56;5049989;28;20260;-61
2023/06/14 01:13:35;;;;;;;3.33;2.33;;;20.90;50.60;;;23.62;38.38;101721.94;5035144;28;20175;-60
2023/06/14 01:16:04;;;;;;;4.97;2.50;;;20.90;50.70;;;23.59;38.49;101714.34;5035388;28;20233;-62
2023/06/14 01:18:33;;;;;;;2.37;2.03;;;20.90;50.80;;;23.58;38.51;101718.09;5034662;28;20655;-62
2023/06/14 01:21:05;;;;;;;2.37;2.10;;;20.90;51.10;;;23.58;38.61;101720.78;5044166;28;20201;-62
2023/06/14 01:23:33;;;;;;;3.33;2.27;;;20.90;51.10;;;23.58;39.07;101726.16;5054915;28;20190;-61
2023/06/14 01:26:02;;;;;;;3.07;2.23;;;20.90;51.40;;;23.59;38.40;101722.41;5046678;28;20242;-62
2023/06/14 01:28:33;;;;;;;3.90;2.37;;;20.90;51.30;;;23.59;38.56;101722.41;5052132;28;20201;-61
2023/06/14 01:31:05;;;;;;;2.53;2.33;;;20.80;51.40;;;23.53;38.56;101723.38;5046445;28;20210;-62
2023/06/14 01:33:35;;;;;;;3.63;2.40;;;20.80;51.60;;;23.47;38.77;101721.59;5034739;28;20746;-59
2023/06/14 01:36:05;;;;;;;3.10;2.30;;;20.80;52.00;;;23.43;38.96;101731.19;5034815;28;20234;-61
2023/06/14 01:38:33;;;;;;;3.50;2.60;;;20.70;52.00;;;23.43;39.28;101720.44;5034820;28;20269;-62
2023/06/14 01:41:02;;;;;;;2.50;2.30;;;20.70;52.30;;;23.40;39.10;101735.16;5045703;28;20285;-62
2023/06/14 01:43:31;;;;;;;3.23;2.53;;;20.70;52.50;;;23.38;39.31;101734.59;5054548;28;20228;-62
2023/06/14 01:45:59;;;;;;;2.50;2.30;;;20.70;52.60;;;23.39;39.55;101738.91;5055123;28;20234;-61
2023/06/14 01:48:27;;;;;;;3.60;2.17;;;20.70;52.60;;;23.37;39.42;101732.13;5054736;28;20214;-62
2023/06/14 01:50:54;;;;;;;2.67;2.30;;;20.70;52.70;;;23.32;39.57;101738.16;5054324;28;20738;-62
2023/06/14 01:53:21;;;;;;;4.50;2.50;;;20.60;53.10;;;23.28;39.66;101730.81;5054378;28;20324;-62
2023/06/14 01:55:49;;;;;;;2.57;2.13;;;20.60;53.30;;;23.26;39.81;101731.06;5050621;28;20250;-62
2023/06/14 01:58:17;;;;;;;3.60;2.33;;;20.60;53.50;;;23.25;39.91;101736.66;5034499;28;20241;-60
2023/06/14 02:00:45;;;;;;;3.40;2.50;;;20.50;53.60;;;23.22;39.91;101737.13;5042462;28;20189;-62
2023/06/14 02:03:12;;;;;;;4.77;2.50;;;20.50;53.80;;;23.20;40.20;101740.03;5039525;28;20190;-62
2023/06/14 02:05:40;;;;;;;3.90;2.40;;;20.50;53.90;;;23.20;39.87;101733.88;5054461;28;20708;-62
2023/06/14 02:08:07;;;;;;;4.40;2.40;;;20.50;54.10;;;23.19;40.17;101730.34;5054527;28;20268;-64
2023/06/14 02:10:34;;;;;;;5.10;2.57;;;20.50;54.00;;;23.19;39.86;101732.22;5053725;28;20218;-61
2023/06/14 02:13:04;;;;;;;3.10;2.57;;;20.50;54.30;;;23.18;39.99;101730.56;5054065;28;20273;-62
2023/06/14 02:15:34;;;;;;;3.87;2.13;;;20.40;54.20;;;23.16;39.64;101732.66;5039674;28;20214;-61
2023/06/14 02:18:03;;;;;;;4.10;2.67;;;20.40;54.20;;;23.13;40.14;101733.16;5034492;28;20254;-62
2023/06/14 02:20:30;;;;;;;4.20;2.70;;;20.40;54.30;;;23.09;40.25;101734.66;5039941;28;20655;-61
2023/06/14 02:22:57;;;;;;;5.40;2.73;;;20.40;54.60;;;23.09;40.22;101731.97;5053583;28;20224;-60
2023/06/14 02:25:24;;;;;;;10.17;3.17;;;20.40;54.80;;;23.07;40.27;101739.44;5051185;28;20220;-61
2023/06/14 02:27:51;;;;;;;4.40;2.40;;;20.30;54.60;;;23.05;40.40;101741.53;5053933;28;20186;-64
2023/06/14 02:30:20;;;;;;;3.07;2.73;;;20.30;54.90;;;23.03;40.57;101733.72;5049488;28;20197;-60
2023/06/14 02:32:48;;;;;;;2.50;2.13;;;20.30;55.00;;;23.04;40.39;101737.22;5033575;28;20281;-67
2023/06/14 02:35:15;;;;;;;3.10;2.40;;;20.40;55.10;;;23.06;40.65;101741.31;5034112;28;20675;-60
2023/06/14 02:37:42;;;;;;;4.13;2.80;;;20.40;55.10;;;23.08;40.40;101747.28;5033922;28;20785;-62
2023/06/14 02:40:11;;;;;;;5.83;2.60;;;20.40;55.20;;;23.11;40.49;101745.97;5035731;28;20218;-62
2023/06/14 02:42:38;;;;;;;3.30;2.50;;;20.40;55.10;;;23.09;40.58;101753.44;5034199;28;20647;-62
2023/06/14 02:45:07;;;;;;;2.00;1.90;;;20.40;55.20;;;23.06;40.52;101743.19;5033709;28;20213;-62
2023/06/14 02:47:35;;;;;;;3.87;2.37;;;20.40;55.10;;;23.03;40.80;101749.03;5033742;28;20594;-61
2023/06/14 02:50:03;;;;;;;4.60;2.77;;;20.30;55.40;;;22.99;40.74;101745.19;5033893;28;20190;-60
2023/06/14 02:52:33;;;;;;;3.20;2.83;;;20.30;55.40;;;22.94;40.93;101742.34;5052949;28;20552;-62
2023/06/14 02:55:00;;;;;;;4.27;2.83;;;20.30;55.60;;;22.92;40.95;101754.13;5053297;28;20220;-64
2023/06/14 02:57:27;;;;;;;6.03;2.47;;;20.20;56.50;;;22.90;41.20;101753.56;5053366;28;20196;-63
2023/06/14 02:59:54;;;;;;;6.50;2.80;;;20.20;56.00;;;22.89;41.46;101759.97;5053477;28;20730;-62
2023/06/14 03:02:21;;;;;;;2.27;2.07;;;20.20;56.10;;;22.89;41.26;101759.16;5050791;28;20549;-62
2023/06/14 03:04:50;;;;;;;6.23;2.83;;;20.20;56.10;;;22.86;40.94;101765.81;5053175;28;20224;-60
2023/06/14 03:07:19;;;;;;;6.43;2.97;;;20.20;55.90;;;22.85;41.16;101768.72;5053235;28;20190;-62
2023/06/14 03:09:49;;;;;;;4.53;2.60;;;20.10;56.20;;;22.83;40.93;101771.63;5053832;28;20170;-60
2023/06/14 03:12:16;;;;;;;5.50;3.00;;;20.10;56.00;;;22.80;40.99;101766.72;5036807;28;20821;-62
2023/06/14 03:14:46;;;;;;;6.23;2.67;;;20.10;56.30;;;22.74;40.80;101778.38;5032727;28;20301;-62
2023/06/14 03:17:13;;;;;;;4.20;2.70;;;20.00;56.20;;;22.68;41.63;101773.91;5033566;28;20194;-60
2023/06/14 03:19:41;;;;;;;5.70;3.00;;;20.00;56.70;;;22.64;41.33;101775.44;5039334;28;20249;-61
2023/06/14 03:22:11;;;;;;;5.70;3.00;;;20.00;56.70;;;22.63;41.70;101781.03;5037890;28;20253;-61
2023/06/14 03:24:38;;;;;;;4.20;2.80;;;19.90;56.90;;;22.62;41.33;101777.53;5032925;28;20202;-62
2023/06/14 03:27:05;;;;;;;5.13;3.07;;;19.90;57.00;;;22.63;41.58;101781.84;5033344;28;20187;-61
2023/06/14 03:29:32;;;;;;;4.23;2.63;;;19.90;57.10;;;22.63;41.81;101783.72;5033370;28;20193;-62
2023/06/14 03:32:02;;;;;;;5.07;3.23;;;19.90;57.20;;;22.61;41.53;101786.63;5047275;28;20201;-62
2023/06/14 03:34:29;;;;;;;2.87;2.67;;;19.90;57.20;;;22.59;42.07;101791.38;5052763;28;20677;-63
2023/06/14 03:36:56;;;;;;;3.23;2.50;;;19.90;57.30;;;22.58;41.51;101789.72;5052662;28;20248;-62
2023/06/14 03:39:24;;;;;;;5.10;3.00;;;19.90;57.20;;;22.58;41.65;101795.09;5052929;28;20218;-62
2023/06/14 03:41:51;;;;;;;4.80;2.73;;;19.80;57.20;;;22.57;41.76;101790.78;5053781;28;20202;-61
2023/06/14 03:44:18;;;;;;;3.37;2.70;;;19.90;57.30;;;22.59;41.53;101788.69;5056794;28;20186;-62
2023/06/14 03:46:46;;;;;;;2.53;2.33;;;19.90;58.10;;;22.61;41.67;101788.47;5057578;28;20202;-62
2023/06/14 03:49:16;;;;;;;5.90;3.10;;;19.90;57.50;;;22.61;41.84;101789.31;5057161;28;20218;-64
2023/06/14 03:51:43;;;;;;;5.57;3.30;;;19.90;57.50;;;22.58;41.93;101797.78;5043081;28;20202;-60
2023/06/14 03:54:10;;;;;;;3.27;2.97;;;19.80;57.50;;;22.56;42.53;101793.72;5036475;28;20249;-62
2023/06/14 03:56:58;;;;;;;5.23;3.27;;;19.80;57.60;;;22.51;41.62;101799.72;5037299;28;20678;-63
2023/06/14 03:59:25;;;;;;;3.30;3.00;;;19.80;57.60;;;22.51;42.24;101793.56;5036956;28;20692;-62
2023/06/14 04:01:54;;;;;;;5.63;3.03;;;19.80;57.60;;;22.48;42.21;101794.84;5051280;28;20198;-62
2023/06/14 04:04:29;;;;;;;4.80;3.27;;;19.80;57.90;;;22.49;41.93;101798.34;5056152;28;20650;-63
2023/06/14 04:06:58;;;;;;;5.17;2.97;;;19.80;57.60;;;22.50;42.26;101799.97;5056848;28;20235;-60
2023/06/14 04:09:25;;;;;;;4.40;3.00;;;19.80;57.90;;;22.51;42.06;101799.72;5056647;28;20576;-62
2023/06/14 04:11:52;;;;;;;3.50;3.07;;;19.80;57.90;;;22.53;42.01;101811.09;5055771;28;20198;-62
2023/06/14 04:14:21;;;;;;;7.23;3.63;;;19.80;57.90;;;22.52;42.07;101806.75;5051501;28;20901;-60
2023/06/14 04:16:49;;;;;;;4.13;3.23;;;19.80;58.10;;;22.53;42.20;101813.75;5050192;28;20202;-62
2023/06/14 04:19:16;;;;;;;6.43;3.00;;;19.80;58.00;;;22.55;42.15;101811.66;5046410;28;20222;-62
2023/06/14 04:21:43;;;;;;;3.90;3.40;;;19.80;58.00;;;22.57;42.33;101806.88;5036100;28;20209;-62
2023/06/14 04:24:13;;;;;;;3.40;3.00;;;19.80;58.00;;;22.58;42.04;101810.41;5036067;28;20257;-61
2023/06/14 04:26:44;;;;;;;3.73;3.10;;;19.90;58.00;;;22.57;42.15;101820.31;5036795;28;20624;-62
2023/06/14 04:29:16;;;;;;;5.40;2.97;;;19.80;58.00;;;22.55;42.17;101826.94;5044938;28;20194;-64
2023/06/14 04:31:44;;;;;;;5.30;2.87;;;19.80;58.00;;;22.53;41.97;101824.50;5056278;28;20190;-60
2023/06/14 04:34:16;;;;;;;5.43;3.20;;;19.80;58.00;;;22.54;42.02;101825.28;5044436;28;20210;-62
2023/06/14 04:36:49;;;;;;;6.37;3.10;;;19.80;58.20;;;22.53;42.42;101834.41;5035651;28;20225;-62
2023/06/14 04:39:23;;;;;;;3.97;3.17;;;19.80;58.30;;;22.53;42.58;101829.88;5037812;28;20198;-61
2023/06/14 04:41:56;;;;;;;5.20;2.93;;;19.80;58.40;;;22.51;41.75;101831.13;5040945;28;20210;-62
2023/06/14 04:44:29;;;;;;;4.23;3.10;;;19.80;58.20;;;22.50;42.32;101833.00;5035415;28;20195;-62
2023/06/14 04:46:59;;;;;;;4.33;3.70;;;19.80;58.30;;;22.49;42.41;101833.22;5035991;28;20183;-62
2023/06/14 04:49:27;;;;;;;5.30;3.30;;;19.80;58.50;;;22.52;42.06;101838.13;5045940;28;20218;-61
2023/06/14 04:51:59;;;;;;;5.73;3.50;;;19.80;58.50;;;22.54;42.12;101834.16;5055190;28;20357;-63
2023/06/14 04:54:26;;;;;;;4.23;3.40;;;19.80;58.50;;;22.56;42.06;101828.59;5054759;28;20209;-63
2023/06/14 04:56:55;;;;;;;9.40;4.33;;;19.80;58.40;;;22.58;42.51;101819.25;5055565;28;20303;-63
2023/06/14 04:59:24;;;;;;;5.67;3.43;;;19.80;58.30;;;22.60;42.33;101825.22;5045824;28;20214;-62
2023/06/14 05:01:52;;;;;;;5.20;3.50;;;19.80;58.30;;;22.61;41.98;101836.78;5046628;28;20221;-61
2023/06/14 05:04:22;;;;;;;6.27;3.90;;;19.90;58.20;;;22.62;41.95;101825.84;5054796;28;20717;-63
2023/06/14 05:06:49;;;;;;;3.67;3.07;;;19.90;58.00;;;22.63;42.27;101835.53;5055089;28;20558;-62
2023/06/14 05:09:19;;;;;;;3.73;3.23;;;19.90;58.00;;;22.65;41.98;101833.47;5054770;28;20224;-63
2023/06/14 05:11:47;;;;;;;5.30;3.53;;;19.90;58.00;;;22.67;41.77;101828.69;5055387;28;20699;-61
2023/06/14 05:14:14;;;;;;;4.03;3.23;;;19.90;57.80;;;22.68;41.80;101835.66;5054396;28;20282;-62
2023/06/14 05:16:42;;;;;;;5.27;3.97;;;20.00;57.80;;;22.72;41.68;101834.19;5054792;28;20202;-62
2023/06/14 05:19:10;;;;;;;4.57;3.20;;;20.00;57.90;;;22.73;41.96;101838.50;5046414;28;20245;-62
2023/06/14 05:21:38;;;;;;;4.33;3.20;;;20.00;57.80;;;22.74;41.98;101834.78;5035010;28;20232;-62
2023/06/14 05:24:09;;;;;;;5.03;3.53;;;20.00;57.80;;;22.77;42.20;101849.59;5034669;28;20178;-62
2023/06/14 05:26:36;;;;;;;5.60;3.53;;;20.10;57.90;;;22.82;41.86;101844.38;5034893;28;20596;-61
2023/06/14 05:29:03;;;;;;;9.53;3.23;;;20.10;58.00;;;22.82;41.82;101839.81;5041102;28;20281;-65
2023/06/14 05:31:31;;;;;;;8.17;6.20;;;20.10;57.90;;;22.84;41.79;101847.66;5054886;28;20198;-63
2023/06/14 05:33:58;;;;;;;5.93;4.80;;;20.10;58.10;;;22.85;42.06;101850.09;5054458;28;20664;-62
2023/06/14 05:36:27;;;;;;;6.50;3.67;;;20.10;58.00;;;22.89;41.83;101851.28;5054886;28;20213;-63
2023/06/14 05:38:57;;;;;;;5.60;3.77;;;20.10;58.10;;;22.91;42.03;101851.06;5049162;28;20225;-61
2023/06/14 05:41:25;;;;;;;5.13;3.43;;;20.20;58.10;;;22.90;41.84;101849.41;5040090;28;20274;-62
2023/06/14 05:43:54;;;;;;;5.57;3.47;;;20.20;58.00;;;22.90;41.83;101858.28;5034935;28;20209;-63
2023/06/14 05:46:24;;;;;;;4.47;3.03;;;20.20;58.00;;;22.97;41.41;101868.09;5034378;28;20256;-64
2023/06/14 05:48:51;;;;;;;4.50;3.30;;;20.20;58.00;;;23.07;41.31;101868.38;5038232;28;20186;-63
2023/06/14 05:51:19;;;;;;;3.97;3.10;;;20.30;58.00;;;23.15;41.14;101860.84;5045976;28;20289;-64
2023/06/14 05:53:46;;;;;;;3.53;3.23;;;20.30;57.80;;;23.20;41.39;101868.19;5053869;28;20194;-63
2023/06/14 05:56:17;;;;;;;6.83;2.93;;;20.40;57.60;;;23.21;40.85;101869.81;5053093;28;20230;-63
2023/06/14 05:58:45;;;;;;;3.53;3.13;;;20.50;57.50;;;23.25;41.16;101865.66;5050843;28;20554;-63
2023/06/14 06:01:13;;;;;;;4.93;4.10;;;20.50;57.50;;;23.30;41.17;101871.94;5039832;28;20249;-63
2023/06/14 06:03:41;;;;;;;6.20;3.73;;;20.50;57.50;;;23.33;41.03;101876.03;5053752;28;20189;-63
2023/06/14 06:06:08;;;;;;;5.60;3.37;;;20.60;57.30;;;23.38;41.01;101870.84;5054155;28;20721;-62
2023/06/14 06:08:35;;;;;;;5.07;3.67;;;20.60;57.00;;;23.46;40.59;101874.00;5051688;28;20201;-62
2023/06/14 06:11:02;;;;;;;7.17;3.70;;;20.70;56.90;;;23.51;40.42;101878.66;5033699;28;20241;-62
2023/06/14 06:13:31;;;;;;;3.63;3.30;;;20.70;56.50;;;23.55;40.30;101874.50;5033633;28;20277;-65
2023/06/14 06:15:57;;;;;;;4.87;3.40;;;20.80;56.30;;;23.59;40.13;101878.34;5050766;28;20721;-64
2023/06/14 06:18:24;;;;;;;4.77;4.03;;;20.80;56.10;;;23.65;39.88;101872.06;5053339;28;20550;-64
2023/06/14 06:20:52;;;;;;;5.60;3.40;;;20.90;56.00;;;23.72;39.52;101880.81;5034554;28;20233;-63
2023/06/14 06:23:18;;;;;;;7.00;3.10;;;21.00;55.60;;;23.75;39.13;101866.09;5033172;28;20187;-62
2023/06/14 06:25:46;;;;;;;5.40;2.97;;;21.00;54.90;;;23.78;39.17;101871.81;5033761;28;20687;-65
2023/06/14 06:28:13;;;;;;;4.13;2.90;;;21.10;54.90;;;23.86;39.29;101878.72;5033308;28;20563;-62
2023/06/14 06:30:41;;;;;;;3.43;2.97;;;21.10;54.80;;;23.92;39.02;101877.75;5051962;28;20272;-63
2023/06/14 06:33:08;;;;;;;3.57;2.70;;;21.20;54.60;;;24.01;38.57;101882.56;5053180;28;20562;-62
2023/06/14 06:35:35;;;;;;;5.30;3.20;;;21.30;54.60;;;24.07;38.64;101887.03;5053890;28;20288;-64
2023/06/14 06:38:02;;;;;;;3.67;2.93;;;21.30;54.40;;;24.12;38.75;101884.47;5053406;28;20623;-64
2023/06/14 06:40:29;;;;;;;3.60;3.03;;;21.40;54.30;;;24.20;38.54;101888.66;5041586;28;20248;-62
2023/06/14 06:42:56;;;;;;;3.43;2.97;;;21.40;54.10;;;24.31;38.28;101892.38;5033236;28;20194;-62
2023/06/14 06:45:24;;;;;;;7.33;3.80;;;21.40;53.70;;;24.42;38.07;101883.47;5033730;28;20286;-62
2023/06/14 06:47:53;;;;;;;5.67;3.80;;;21.50;53.60;;;24.49;37.58;101889.53;5033496;28;20210;-62
2023/06/14 06:50:22;;;;;;;10.00;2.90;;;21.60;53.30;;;24.57;37.66;101894.56;5048836;28;20193;-62
2023/06/14 06:52:50;;;;;;;3.37;2.93;;;21.70;53.20;;;24.65;37.25;101896.88;5053406;28;20663;-64
2023/06/14 06:55:17;;;;;;;2.97;2.57;;;21.80;53.00;;;24.75;37.31;101887.09;5053750;28;20300;-63
2023/06/14 06:57:44;;;;;;;4.77;3.00;;;21.90;52.90;;;24.83;36.78;101888.63;5053068;28;20344;-62
2023/06/14 07:00:12;;;;;;;7.30;3.37;;;22.00;52.60;;;24.89;37.05;101890.34;5038881;28;20540;-63
2023/06/14 07:02:40;;;;;;;2.93;2.63;;;22.00;52.20;;;24.93;36.96;101894.22;5050158;28;20328;-62
2023/06/14 07:05:09;;;;;;;3.00;2.50;;;22.10;52.00;;;25.03;36.24;101897.09;5052354;28;20217;-63
2023/06/14 07:07:36;;;;;;;3.67;3.00;;;22.20;51.70;;;25.08;36.03;101899.88;5052691;28;20264;-62
2023/06/14 07:10:04;;;;;;;5.47;3.57;;;22.20;51.00;;;25.19;35.68;101901.72;5039392;28;20297;-64
2023/06/14 07:12:33;;;;;;;3.53;3.23;;;22.30;50.80;;;25.24;35.14;101901.81;5034880;28;20204;-63
2023/06/14 07:15:00;;;;;;;2.83;2.63;;;22.30;49.70;;;25.30;34.83;101902.69;5047385;28;20317;-64
2023/06/14 07:17:27;;;;;;;3.20;2.90;;;22.50;49.10;;;25.36;34.08;101902.56;5043135;28;20206;-66
2023/06/14 07:19:54;;;;;;;7.97;2.43;;;22.50;48.40;;;25.41;33.63;101897.22;5039330;28;20248;-66
2023/06/14 07:22:23;;;;;;;3.53;2.63;;;22.60;47.70;;;25.50;33.54;101903.09;5047687;28;20190;-65
2023/06/14 07:24:50;;;;;;;2.50;2.30;;;22.70;47.70;;;25.57;33.42;101897.53;5035657;28;20352;-65
2023/06/14 07:27:17;;;;;;;2.23;2.00;;;22.70;47.30;;;25.59;32.98;101900.78;5037062;28;20214;-62
2023/06/14 07:29:44;;;;;;;2.90;2.47;;;22.80;46.10;;;25.59;32.86;101903.47;5036555;28;20202;-62
2023/06/14 07:32:11;;;;;;;4.57;4.07;;;22.90;46.20;;;25.66;33.26;101904.13;5036078;28;20194;-61
2023/06/14 07:34:37;;;;;;;3.43;3.13;;;22.90;46.40;;;25.78;33.74;101899.47;5044210;28;20237;-63
2023/06/14 07:37:04;;;;;;;3.70;3.20;;;23.00;46.60;;;25.87;33.13;101892.59;5056085;28;20190;-63
2023/06/14 07:39:33;;;;;;;4.20;2.80;;;23.00;46.60;;;25.90;32.91;101889.41;5047365;28;20706;-64
2023/06/14 07:42:00;;;;;;;2.67;2.47;;;23.10;46.40;;;25.96;33.29;101900.00;5039778;28;20202;-62
2023/06/14 07:44:32;;;;;;;3.53;3.23;;;23.20;46.50;;;26.07;32.72;101892.91;5042402;28;20237;-63
2023/06/14 07:46:59;;;;;;;6.17;3.30;;;23.30;46.30;;;26.18;32.75;101894.69;5052216;28;20190;-62
2023/06/14 07:49:27;;;;;;;4.67;2.57;;;23.40;46.30;;;26.30;32.59;101892.69;5044368;28;20182;-64
2023/06/14 07:51:55;;;;;;;3.43;2.60;;;23.50;46.10;;;26.31;32.37;101894.34;5031570;28;20198;-62
2023/06/14 07:54:26;;;;;;;2.30;2.10;;;23.50;45.40;;;26.35;32.09;101895.47;5032096;28;20197;-62
2023/06/14 07:56:55;;;;;;;3.87;2.23;;;23.60;45.00;;;26.35;31.99;101902.75;5032605;28;20207;-62
2023/06/14 07:59:22;;;;;;;2.43;2.23;;;23.60;44.60;;;26.34;32.29;101904.63;5041609;28;20198;-62
2023/06/14 08:01:49;;;;;;;2.40;2.20;;;23.70;44.30;;;26.38;31.52;101903.06;5045288;28;20268;-63
2023/06/14 08:04:16;;;;;;;2.67;2.20;;;23.70;43.70;;;26.34;31.35;101915.41;5049557;28;20269;-62
2023/06/14 08:06:47;;;;;;;3.13;2.30;;;23.70;43.20;;;26.29;31.90;101907.28;5051912;28;20230;-62
2023/06/14 08:09:15;;;;;;;3.23;2.17;;;23.80;43.10;;;26.35;31.73;101903.56;5051922;28;20210;-64
2023/06/14 08:11:42;;;;;;;3.30;2.37;;;23.80;43.40;;;26.38;31.21;101903.06;5052497;28;20201;-63
2023/06/14 08:14:11;;;;;;;4.17;2.47;;;23.80;43.10;;;26.47;31.50;101911.53;5049688;28;20190;-64
2023/06/14 08:16:38;;;;;;;2.77;2.20;;;23.90;42.70;;;26.77;31.29;101915.47;5049782;28;20303;-64
2023/06/14 08:19:05;;;;;;;4.00;3.43;;;23.90;42.80;;;27.60;30.06;101911.41;5051755;28;20191;-62
2023/06/14 08:21:33;;;;;;;3.30;2.50;;;24.10;42.50;;;28.89;28.10;101908.09;5052427;28;20675;-63
2023/06/14 08:24:00;;;;;;;4.93;4.03;;;24.50;42.00;;;30.35;26.06;101903.47;5051953;28;20585;-63
2023/06/14 08:26:28;;;;;;;2.27;2.07;;;25.10;41.20;;;31.78;24.99;101894.91;5044947;28;20253;-63
2023/06/14 08:28:56;;;;;;;2.43;2.23;;;25.80;40.20;;;32.82;22.78;101909.50;5036620;28;20279;-64
2023/06/14 08:31:27;;;;;;;3.00;2.70;;;26.60;37.30;;;33.82;22.36;101901.63;5055189;28;20269;-63
2023/06/14 08:33:54;;;;;;;5.07;3.60;;;27.40;36.10;;;34.80;20.98;101904.84;5055315;28;20274;-62
2023/06/14 08:36:22;;;;;;;2.60;2.40;;;28.10;34.20;;;35.53;20.32;101907.22;5052326;28;20206;-62
2023/06/14 08:38:49;;;;;;;3.90;3.57;;;28.80;33.00;;;36.08;19.97;101893.97;5054895;28;20666;-63
2023/06/14 08:41:25;;;;;;;2.97;2.77;;;29.50;31.80;;;36.90;19.11;101897.50;5055449;28;20653;-63
2023/06/14 08:43:52;;;;;;;2.00;1.90;;;30.10;31.00;;;37.70;18.48;101898.72;5055257;28;20628;-63
2023/06/14 08:46:19;;;;;;;6.63;2.17;;;30.70;30.10;;;38.43;17.90;101898.25;5042376;28;20222;-63
2023/06/14 08:48:52;;;;;;;2.72;2.53;;;31.20;29.70;;;39.34;17.71;101891.84;5042578;28;20244;-63
2023/06/14 08:51:22;;;;;;;2.42;2.30;;;31.80;29.50;;;39.96;16.30;101897.13;5055369;28;20284;-65
2023/06/14 08:53:57;;;;;;;3.13;2.10;;;32.40;28.10;;;40.04;16.25;101903.69;5037569;28;20210;-62
2023/06/14 08:56:27;;;;;;;4.57;2.30;;;32.90;27.10;;;40.03;16.37;101905.69;5035359;28;20210;-65
2023/06/14 08:58:56;;;;;;;5.75;2.45;;;33.30;26.90;;;40.37;16.38;101901.59;5035519;28;20194;-62
2023/06/14 09:01:24;;;;;;;2.25;2.08;;;33.50;26.60;;;40.76;15.88;101895.31;5042157;28;20296;-63
2023/06/14 09:03:54;;;;;;;2.50;2.10;;;33.90;26.30;;;41.39;14.97;101901.09;5046912;28;20233;-61
2023/06/14 09:06:22;;;;;;;2.67;2.17;;;34.20;25.90;;;41.62;14.72;101904.84;5035068;28;20679;-61
2023/06/14 09:08:50;;;;;;;2.83;2.50;;;34.50;25.30;;;41.52;14.90;101908.13;5045412;28;20241;-66
2023/06/14 09:11:18;;;;;;;2.83;2.53;;;34.80;24.50;;;41.31;14.29;101913.91;5048814;28;20259;-63
2023/06/14 09:13:46;;;;;;;2.80;2.60;;;34.90;24.20;;;41.24;14.95;101923.94;5050409;28;20272;-63
2023/06/14 09:16:13;;;;;;;3.55;3.25;;;35.00;24.10;;;41.31;14.82;101907.56;5050547;28;20237;-64
2023/06/14 09:18:47;;;;;;;2.65;2.45;;;35.10;23.80;;;41.45;14.45;101908.75;5037354;28;20697;-65
2023/06/14 09:21:17;;;;;;;2.30;2.20;;;35.20;23.80;;;41.76;14.72;101906.03;5047742;28;20246;-63
2023/06/14 09:23:47;;;;;;;4.72;2.72;;;35.40;23.80;;;42.30;14.50;101908.13;5050642;28;20331;-62
2023/06/14 09:26:16;;;;;;;3.20;2.30;;;35.40;23.40;;;42.77;13.49;101899.69;5052630;28;20217;-63
2023/06/14 09:28:45;;;;;;;2.63;2.42;;;35.60;23.50;;;42.90;13.27;101904.75;5043049;28;20197;-62
2023/06/14 09:31:15;;;;;;;2.75;2.45;;;35.80;23.70;;;42.84;13.38;101897.06;5050493;28;20200;-64
2023/06/14 09:33:47;;;;;;;6.57;2.70;;;36.00;22.70;;;42.74;13.62;101894.88;5052510;28;20201;-64
2023/06/14 09:36:18;;;;;;;3.00;2.80;;;36.10;22.80;;;42.81;13.78;101895.00;5053019;28;20218;-61
2023/06/14 09:38:53;;;;;;;3.75;2.70;;;36.20;22.60;;;42.97;12.93;101892.97;5053260;28;20245;-62
2023/06/14 09:41:20;;;;;;;2.85;2.65;;;36.30;22.50;;;42.95;13.07;101893.34;5044305;28;20312;-60
2023/06/14 09:43:49;;;;;;;3.30;2.67;;;36.20;22.00;;;42.93;13.53;101894.91;5053428;28;20574;-64
2023/06/14 09:46:18;;;;;;;2.78;2.58;;;36.30;22.40;;;42.84;13.40;101891.50;5054107;28;20217;-62
2023/06/14 09:48:45;;;;;;;4.68;2.47;;;36.30;22.30;;;43.01;13.05;101889.09;5052755;28;20566;-63
2023/06/14 09:51:17;;;;;;;3.45;3.15;;;36.50;22.40;;;43.20;13.01;101891.03;5054052;28;20224;-68
2023/06/14 09:53:49;;;;;;;7.18;2.42;;;36.50;22.30;;;43.51;13.29;101893.63;5048417;28;20198;-63
2023/06/14 09:56:23;;;;;;;2.85;2.22;;;36.60;22.10;;;43.66;12.96;101889.91;5051808;28;20240;-63
2023/06/14 09:58:56;;;;;;;3.20;2.50;;;36.70;21.80;;;43.46;12.65;101891.16;5052178;28;20276;-62
2023/06/14 10:01:35;;;;;;;3.08;2.33;;;36.60;21.80;;;43.21;12.97;101889.88;5051963;28;20198;-61
2023/06/14 10:04:05;;;;;;;5.68;3.33;;;36.50;21.90;;;42.88;13.15;101884.06;5041952;28;20637;-62
2023/06/14 10:06:41;;;;;;;5.57;4.80;;;36.40;21.80;;;43.22;13.03;101874.81;5044945;28;20190;-65
2023/06/14 10:09:10;;;;;;;3.78;2.88;;;36.50;22.30;;;43.85;12.42;101882.69;5050168;28;20194;-62
2023/06/14 10:11:43;;;;;;;3.72;2.55;;;36.50;22.30;;;44.25;12.45;101878.19;5044450;28;20201;-62
2023/06/14 10:14:14;;;;;;;3.83;3.35;;;36.60;22.00;;;44.37;12.33;101891.03;5051609;28;20220;-62
2023/06/14 10:16:52;;;;;;;6.63;6.13;;;36.70;22.10;;;44.50;11.99;101875.78;5051048;28;20198;-61
2023/06/14 10:19:25;;;;;;;8.75;8.15;;;36.80;21.90;;;43.61;11.95;101887.44;5044738;28;20639;-63